Time;durP1;ratioP1;P1;durP2;ratioP2;P2;SDS_P1;SDS_P2;PMS_P1;PMS_P2;Temp;Humidity;BMP_temperature;BMP_pressure;BME280_temperature;BME280_humidity;BME280_pressure;Samples;Min_cycle;Max_cycle;Signal;HPM_P1;HPM_P2
2021/09/18 00:00:10;;;;;;;3.30;1.52;;;12.00;93.80;;;;;;5067239;28;20025;-66
2021/09/18 00:02:36;;;;;;;4.20;1.90;;;12.00;93.70;;;;;;5058654;28;20193;-67
2021/09/18 00:05:02;;;;;;;3.85;1.77;;;11.90;93.70;;;;;;5057857;28;20166;-67
2021/09/18 00:07:29;;;;;;;3.97;1.92;;;12.00;93.80;;;;;;5064881;28;20643;-66
2021/09/18 00:09:54;;;;;;;4.25;1.67;;;12.00;93.90;;;;;;5061127;28;20124;-68
2021/09/18 00:12:20;;;;;;;6.30;2.17;;;12.00;93.80;;;;;;5050352;28;20111;-67
2021/09/18 00:14:46;;;;;;;3.88;1.63;;;12.00;93.80;;;;;;5065570;28;20031;-67
2021/09/18 00:17:12;;;;;;;6.40;1.80;;;12.00;93.70;;;;;;5060506;28;20029;-65
2021/09/18 00:19:37;;;;;;;4.10;1.73;;;12.00;93.70;;;;;;5068950;28;20576;-67
2021/09/18 00:22:03;;;;;;;2.67;1.75;;;12.00;93.90;;;;;;5047989;28;20040;-67
2021/09/18 00:24:29;;;;;;;4.18;1.85;;;12.00;93.90;;;;;;5055401;28;20035;-67
2021/09/18 00:26:54;;;;;;;4.32;1.70;;;12.00;93.80;;;;;;5059258;28;20444;-67
2021/09/18 00:29:20;;;;;;;2.60;1.40;;;12.00;93.70;;;;;;5075218;28;20119;-66
2021/09/18 00:31:46;;;;;;;3.00;1.80;;;12.00;93.70;;;;;;5063566;28;20021;-67
2021/09/18 00:34:11;;;;;;;3.45;1.92;;;12.10;93.70;;;;;;5048998;28;20025;-67
2021/09/18 00:36:37;;;;;;;2.97;1.60;;;12.10;93.60;;;;;;5056874;28;20031;-66
2021/09/18 00:39:03;;;;;;;3.85;1.73;;;12.10;93.60;;;;;;5050718;28;20029;-66
2021/09/18 00:41:29;;;;;;;3.08;1.60;;;12.10;93.60;;;;;;5056391;28;20130;-66
2021/09/18 00:43:57;;;;;;;1.95;1.58;;;12.10;93.40;;;;;;5051804;28;20036;-67
2021/09/18 00:46:23;;;;;;;4.07;1.85;;;12.10;93.60;;;;;;5059049;28;20115;-66
2021/09/18 00:48:49;;;;;;;4.03;2.08;;;12.10;93.60;;;;;;5048426;28;20047;-67
2021/09/18 00:51:17;;;;;;;3.15;1.77;;;12.10;93.40;;;;;;5058194;28;20032;-67
2021/09/18 00:53:44;;;;;;;3.17;1.73;;;12.00;93.60;;;;;;5050243;28;20024;-65
2021/09/18 00:56:10;;;;;;;4.95;2.00;;;12.00;93.80;;;;;;5052869;28;20030;-67
2021/09/18 00:58:35;;;;;;;6.28;2.00;;;12.10;93.90;;;;;;5050429;28;20031;-67
2021/09/18 01:01:01;;;;;;;4.28;1.80;;;12.00;93.60;;;;;;5063965;28;20111;-66
2021/09/18 01:03:27;;;;;;;3.38;1.88;;;12.00;93.90;;;;;;5055056;28;20025;-67
2021/09/18 01:05:53;;;;;;;4.03;1.88;;;12.00;93.80;;;;;;5057773;28;20038;-66
2021/09/18 01:08:21;;;;;;;4.20;1.75;;;12.00;93.80;;;;;;5049977;28;20102;-67
2021/09/18 01:10:47;;;;;;;5.75;1.98;;;12.00;93.70;;;;;;5061845;28;20482;-66
2021/09/18 01:13:15;;;;;;;3.63;1.92;;;12.00;93.70;;;;;;5055775;28;20036;-68
2021/09/18 01:15:42;;;;;;;5.28;2.13;;;12.00;93.90;;;;;;5058070;28;20012;-67
2021/09/18 01:18:08;;;;;;;5.05;1.73;;;12.00;93.90;;;;;;5062970;28;20053;-65
2021/09/18 01:20:35;;;;;;;3.92;2.00;;;12.10;93.80;;;;;;5059522;28;20025;-66
2021/09/18 01:23:03;;;;;;;6.03;2.00;;;12.10;93.80;;;;;;5054143;28;20036;-67
2021/09/18 01:25:32;;;;;;;3.83;1.98;;;12.00;93.80;;;;;;5067103;28;20036;-66
2021/09/18 01:27:58;;;;;;;3.92;2.10;;;12.10;93.50;;;;;;5050485;28;20079;-66
2021/09/18 01:30:28;;;;;;;2.50;1.80;;;12.00;93.80;;;;;;5058880;28;20131;-67
2021/09/18 01:32:55;;;;;;;3.90;1.90;;;12.10;94.10;;;;;;5062387;28;20060;-67
2021/09/18 01:35:21;;;;;;;4.57;2.15;;;12.10;93.80;;;;;;5080599;28;20035;-66
2021/09/18 01:37:47;;;;;;;3.63;1.73;;;12.00;93.80;;;;;;5058122;28;20579;-65
2021/09/18 01:40:25;;;;;;;3.70;1.92;;;12.10;94.00;;;;;;5068346;28;20020;-67
2021/09/18 01:42:51;;;;;;;5.90;2.40;;;12.10;93.50;;;;;;5058038;28;20037;-67
2021/09/18 01:45:17;;;;;;;6.35;2.30;;;12.00;93.80;;;;;;5065174;28;20079;-67
2021/09/18 01:47:49;;;;;;;5.82;2.25;;;12.10;93.80;;;;;;5059575;28;23979;-67
2021/09/18 01:50:26;;;;;;;4.85;1.80;;;12.00;93.70;;;;;;5075217;28;20627;-67
2021/09/18 01:52:56;;;;;;;3.75;2.17;;;12.00;93.80;;;;;;5058890;28;20028;-66
2021/09/18 01:55:22;;;;;;;6.65;2.20;;;12.00;93.90;;;;;;5061106;28;20506;-67
2021/09/18 01:57:52;;;;;;;5.75;2.38;;;12.00;94.00;;;;;;5058309;28;20833;-67
2021/09/18 02:00:18;;;;;;;5.03;2.33;;;12.10;94.00;;;;;;5058626;28;20095;-67
2021/09/18 02:02:44;;;;;;;4.45;2.33;;;12.10;93.80;;;;;;5054706;28;20404;-67
2021/09/18 02:05:11;;;;;;;4.75;2.00;;;12.10;93.50;;;;;;5066261;28;20020;-66
2021/09/18 02:07:37;;;;;;;6.32;2.10;;;12.10;93.70;;;;;;5063052;28;20646;-66
2021/09/18 02:10:05;;;;;;;4.95;2.22;;;12.10;93.90;;;;;;5064577;28;20560;-67
2021/09/18 02:12:31;;;;;;;2.63;1.80;;;12.10;93.90;;;;;;5061174;28;20021;-67
2021/09/18 02:14:56;;;;;;;7.28;2.20;;;12.10;94.00;;;;;;5067321;28;20766;-67
2021/09/18 02:17:22;;;;;;;4.35;2.10;;;12.10;93.80;;;;;;5056358;28;20033;-67
2021/09/18 02:19:48;;;;;;;4.35;2.15;;;12.10;93.90;;;;;;5067455;28;20028;-67
2021/09/18 02:22:13;;;;;;;3.83;1.80;;;12.10;93.80;;;;;;5056566;28;20025;-65
2021/09/18 02:24:39;;;;;;;4.82;2.17;;;12.10;93.80;;;;;;5079448;28;20013;-67
2021/09/18 02:27:04;;;;;;;3.58;2.20;;;12.10;94.00;;;;;;5062340;28;20060;-67
2021/09/18 02:29:30;;;;;;;3.78;2.30;;;12.10;94.00;;;;;;5062802;28;20403;-66
2021/09/18 02:31:55;;;;;;;4.18;2.33;;;12.10;93.80;;;;;;5062490;28;20025;-67
2021/09/18 02:34:21;;;;;;;5.03;2.63;;;12.10;93.90;;;;;;5051693;28;20048;-68
2021/09/18 02:36:47;;;;;;;5.72;2.35;;;12.10;93.90;;;;;;5079104;28;20071;-66
2021/09/18 02:39:12;;;;;;;5.07;2.35;;;12.10;94.00;;;;;;5062917;28;20379;-67
2021/09/18 02:41:38;;;;;;;5.32;2.63;;;12.10;94.20;;;;;;5073991;28;20028;-67
2021/09/18 02:44:04;;;;;;;7.35;2.20;;;12.20;94.20;;;;;;5054001;28;20032;-67
2021/09/18 02:46:30;;;;;;;5.90;2.30;;;12.10;94.30;;;;;;5063690;28;20021;-67
2021/09/18 02:48:55;;;;;;;5.07;2.63;;;12.20;94.30;;;;;;5053417;28;20044;-66
2021/09/18 02:51:21;;;;;;;3.95;2.40;;;12.20;94.30;;;;;;5060283;28;20506;-67
2021/09/18 02:53:47;;;;;;;4.63;2.50;;;12.20;94.20;;;;;;5064968;28;20036;-66
2021/09/18 02:56:12;;;;;;;4.05;2.40;;;12.10;94.30;;;;;;5055971;28;20365;-65
2021/09/18 02:58:38;;;;;;;5.20;2.60;;;12.10;94.30;;;;;;5059700;28;20017;-66
2021/09/18 03:01:03;;;;;;;5.47;2.70;;;12.10;94.50;;;;;;5069911;28;20036;-67
2021/09/18 03:03:29;;;;;;;7.95;2.47;;;12.20;94.50;;;;;;5064164;28;20035;-66
2021/09/18 03:05:55;;;;;;;5.55;2.85;;;12.20;94.30;;;;;;5065154;28;20044;-67
2021/09/18 03:08:20;;;;;;;4.15;2.78;;;12.30;94.40;;;;;;5054379;28;20390;-66
2021/09/18 03:10:46;;;;;;;6.53;2.38;;;12.20;94.40;;;;;;5061208;28;20029;-67
2021/09/18 03:13:12;;;;;;;7.43;2.72;;;12.30;94.20;;;;;;5061644;28;20111;-65
2021/09/18 03:15:38;;;;;;;5.40;2.60;;;12.30;94.40;;;;;;5063399;28;20112;-67
2021/09/18 03:18:04;;;;;;;5.40;2.90;;;12.30;94.20;;;;;;5064512;28;20029;-67
2021/09/18 03:20:29;;;;;;;4.70;2.42;;;12.30;94.30;;;;;;5064464;28;20032;-67
2021/09/18 03:22:55;;;;;;;3.65;2.10;;;12.30;94.30;;;;;;5057640;28;20560;-65
2021/09/18 03:25:21;;;;;;;4.97;2.22;;;12.40;94.30;;;;;;5058280;28;20024;-67
2021/09/18 03:27:46;;;;;;;4.30;2.33;;;12.30;94.20;;;;;;5053332;28;20035;-67
2021/09/18 03:30:12;;;;;;;4.40;2.47;;;12.30;94.50;;;;;;5055411;28;20029;-66
2021/09/18 03:32:38;;;;;;;3.78;2.60;;;12.30;94.30;;;;;;5056480;28;20165;-65
2021/09/18 03:35:05;;;;;;;7.20;2.30;;;12.40;94.40;;;;;;5066053;28;20492;-67
2021/09/18 03:37:33;;;;;;;5.60;2.28;;;12.40;94.30;;;;;;5058188;28;20081;-67
2021/09/18 03:40:00;;;;;;;3.63;2.10;;;12.30;94.40;;;;;;5066286;28;20033;-67
2021/09/18 03:42:26;;;;;;;4.47;2.63;;;12.30;94.50;;;;;;5061669;28;20028;-67
2021/09/18 03:44:51;;;;;;;6.35;2.50;;;12.30;94.50;;;;;;5061618;28;20055;-67
2021/09/18 03:47:17;;;;;;;6.95;2.30;;;12.40;94.50;;;;;;5055902;28;20127;-66
2021/09/18 03:49:43;;;;;;;4.50;2.53;;;12.30;94.50;;;;;;5066406;28;20039;-67
2021/09/18 03:52:08;;;;;;;4.32;2.60;;;12.40;94.80;;;;;;5054838;28;20059;-67
2021/09/18 03:54:34;;;;;;;5.80;3.08;;;12.40;94.70;;;;;;5054361;28;20020;-67
2021/09/18 03:57:00;;;;;;;7.90;3.35;;;12.50;94.70;;;;;;5051817;28;20068;-65
2021/09/18 03:59:25;;;;;;;5.00;3.40;;;12.50;94.70;;;;;;5054216;28;20017;-68
2021/09/18 04:01:51;;;;;;;8.85;3.42;;;12.50;94.90;;;;;;5056736;28;20476;-68
2021/09/18 04:04:16;;;;;;;6.45;3.47;;;12.50;95.10;;;;;;5057433;28;20174;-67
2021/09/18 04:06:42;;;;;;;6.25;3.25;;;12.30;95.30;;;;;;5054783;28;20028;-67
2021/09/18 04:09:07;;;;;;;5.45;3.25;;;12.30;95.60;;;;;;5056202;28;20091;-67
2021/09/18 04:11:33;;;;;;;5.68;3.38;;;12.40;95.70;;;;;;5056819;28;20047;-66
2021/09/18 04:13:59;;;;;;;6.93;3.25;;;12.40;95.90;;;;;;5060711;28;20040;-65
2021/09/18 04:16:25;;;;;;;9.27;3.30;;;12.40;96.10;;;;;;5051209;28;23704;-67
2021/09/18 04:18:51;;;;;;;5.03;2.88;;;12.40;96.10;;;;;;5063818;28;20020;-67
2021/09/18 04:21:16;;;;;;;8.70;3.47;;;12.30;96.00;;;;;;5061663;28;20040;-63
2021/09/18 04:23:42;;;;;;;6.32;2.90;;;12.30;96.30;;;;;;5057704;28;20077;-63
2021/09/18 04:26:08;;;;;;;5.82;2.75;;;12.30;96.40;;;;;;5052440;28;20024;-62
2021/09/18 04:28:33;;;;;;;4.60;3.15;;;12.30;96.40;;;;;;5052925;28;20058;-64
2021/09/18 04:30:59;;;;;;;8.68;3.38;;;12.30;96.60;;;;;;5060287;28;20029;-64
2021/09/18 04:33:24;;;;;;;8.55;3.80;;;12.30;96.70;;;;;;5051461;28;20496;-64
2021/09/18 04:35:50;;;;;;;7.70;4.13;;;12.20;96.60;;;;;;5064452;28;20495;-64
2021/09/18 04:38:16;;;;;;;6.22;3.38;;;12.20;96.90;;;;;;5057413;28;20042;-64
2021/09/18 04:40:42;;;;;;;7.68;4.22;;;12.20;97.00;;;;;;5055976;28;20156;-63
2021/09/18 04:43:07;;;;;;;8.25;4.22;;;12.20;97.00;;;;;;5061098;28;20094;-63
2021/09/18 04:45:33;;;;;;;8.85;4.30;;;12.20;97.20;;;;;;5053223;28;20032;-63
2021/09/18 04:47:58;;;;;;;6.47;4.20;;;12.30;97.40;;;;;;5061279;28;20024;-63
2021/09/18 04:50:24;;;;;;;7.60;4.75;;;12.30;97.50;;;;;;5051223;28;20028;-63
2021/09/18 04:52:50;;;;;;;9.82;5.15;;;12.30;97.60;;;;;;5047843;28;20036;-63
2021/09/18 04:55:15;;;;;;;10.10;5.45;;;12.30;97.80;;;;;;5054562;28;20684;-64
2021/09/18 04:57:41;;;;;;;9.27;5.20;;;12.30;97.70;;;;;;5055802;28;20021;-64
2021/09/18 05:00:07;;;;;;;13.23;5.53;;;12.30;97.60;;;;;;5055899;28;20040;-62
2021/09/18 05:02:32;;;;;;;12.18;6.18;;;12.30;97.70;;;;;;5057460;28;20029;-63
2021/09/18 05:04:58;;;;;;;11.82;6.10;;;12.30;97.80;;;;;;5057615;28;20028;-62
2021/09/18 05:07:24;;;;;;;8.98;6.13;;;12.30;97.70;;;;;;5047118;28;20029;-64
2021/09/18 05:09:49;;;;;;;12.43;6.55;;;12.30;97.90;;;;;;5055931;28;20493;-63
2021/09/18 05:12:15;;;;;;;12.23;6.93;;;12.40;97.90;;;;;;5049853;28;20028;-64
2021/09/18 05:14:40;;;;;;;12.45;6.30;;;12.50;98.00;;;;;;5064119;28;20021;-65
2021/09/18 05:17:06;;;;;;;10.88;6.70;;;12.40;98.00;;;;;;5050891;28;21933;-65
2021/09/18 05:19:31;;;;;;;10.88;6.68;;;12.50;98.00;;;;;;5045883;28;20029;-63
2021/09/18 05:21:57;;;;;;;12.30;6.68;;;12.40;98.00;;;;;;5044593;28;20045;-65
2021/09/18 05:24:24;;;;;;;12.77;7.22;;;12.50;98.10;;;;;;5055237;28;20029;-65
2021/09/18 05:26:51;;;;;;;13.25;7.57;;;12.50;98.10;;;;;;5053319;28;20026;-64
2021/09/18 05:29:16;;;;;;;13.82;6.75;;;12.60;98.10;;;;;;5057034;28;20380;-64
2021/09/18 05:31:42;;;;;;;11.88;7.07;;;12.60;98.10;;;;;;5044984;28;20032;-63
2021/09/18 05:34:09;;;;;;;13.50;7.07;;;12.60;98.00;;;;;;5045379;28;20037;-64
2021/09/18 05:36:35;;;;;;;12.52;7.25;;;12.60;98.10;;;;;;5048852;28;20395;-64
2021/09/18 05:39:01;;;;;;;11.85;6.90;;;12.60;98.00;;;;;;5054608;28;20039;-64
2021/09/18 05:41:26;;;;;;;12.00;6.90;;;12.60;98.00;;;;;;5047023;28;20257;-65
2021/09/18 05:43:52;;;;;;;13.27;6.75;;;12.70;98.10;;;;;;5078590;28;20095;-65
2021/09/18 05:46:18;;;;;;;15.82;7.95;;;12.70;98.10;;;;;;5057440;28;20020;-63
2021/09/18 05:48:44;;;;;;;13.60;7.80;;;12.70;98.10;;;;;;5065322;28;20043;-64
2021/09/18 05:51:10;;;;;;;13.07;7.72;;;12.80;98.10;;;;;;5062550;28;20028;-65
2021/09/18 05:53:36;;;;;;;15.23;8.07;;;12.80;98.10;;;;;;5072862;28;20678;-65
2021/09/18 05:56:02;;;;;;;14.15;7.40;;;12.90;98.10;;;;;;5067779;28;20427;-65
2021/09/18 05:58:28;;;;;;;13.80;8.07;;;12.90;98.10;;;;;;5047745;28;20552;-64
2021/09/18 06:00:54;;;;;;;15.00;7.10;;;13.00;98.10;;;;;;5066356;28;20112;-64
2021/09/18 06:03:20;;;;;;;14.25;8.40;;;13.00;97.90;;;;;;5049913;28;20035;-65
2021/09/18 06:05:45;;;;;;;14.80;7.53;;;13.10;98.00;;;;;;5063763;28;20142;-65
2021/09/18 06:08:11;;;;;;;11.70;7.40;;;13.00;97.90;;;;;;5062458;28;20024;-65
2021/09/18 06:10:36;;;;;;;13.57;7.32;;;13.10;97.90;;;;;;5084668;28;20089;-64
2021/09/18 06:13:02;;;;;;;11.65;7.28;;;13.10;98.00;;;;;;5079743;28;20608;-65
2021/09/18 06:15:28;;;;;;;12.15;6.78;;;13.20;97.80;;;;;;5062932;28;20032;-64
2021/09/18 06:17:53;;;;;;;13.30;6.90;;;13.10;97.70;;;;;;5056707;28;20039;-64
2021/09/18 06:20:19;;;;;;;9.80;6.82;;;13.20;97.70;;;;;;5059905;28;20028;-62
2021/09/18 06:22:45;;;;;;;11.07;6.70;;;13.40;97.80;;;;;;5054723;28;20032;-64
2021/09/18 06:25:12;;;;;;;9.63;5.70;;;13.40;97.60;;;;;;5060470;28;20484;-65
2021/09/18 06:27:39;;;;;;;7.80;5.07;;;13.50;97.60;;;;;;5063500;28;20036;-63
2021/09/18 06:30:09;;;;;;;11.57;5.82;;;13.40;97.30;;;;;;5067675;28;20019;-64
2021/09/18 06:32:35;;;;;;;8.18;5.03;;;13.50;97.50;;;;;;5060193;28;20410;-64
2021/09/18 06:35:00;;;;;;;8.85;5.13;;;13.50;97.20;;;;;;5058111;28;20033;-63
2021/09/18 06:37:26;;;;;;;9.30;5.15;;;13.50;97.30;;;;;;5059863;28;20091;-65
2021/09/18 06:39:52;;;;;;;7.22;4.97;;;13.60;97.30;;;;;;5064902;28;20028;-64
2021/09/18 06:42:17;;;;;;;7.95;5.00;;;13.60;97.10;;;;;;5069597;28;20035;-64
2021/09/18 06:44:45;;;;;;;8.90;4.57;;;13.60;97.20;;;;;;5079836;28;20534;-64
2021/09/18 06:47:11;;;;;;;7.38;4.50;;;13.60;97.10;;;;;;5064363;28;20063;-62
2021/09/18 06:49:37;;;;;;;8.13;4.80;;;13.70;97.10;;;;;;5064573;28;20539;-64
2021/09/18 06:52:03;;;;;;;6.78;3.92;;;13.80;97.00;;;;;;5063933;28;20029;-63
2021/09/18 06:54:29;;;;;;;5.75;3.85;;;13.90;96.80;;;;;;5051646;28;20028;-64
2021/09/18 06:56:54;;;;;;;6.53;3.83;;;13.90;96.70;;;;;;5061797;28;20035;-64
2021/09/18 06:59:20;;;;;;;5.60;3.95;;;13.90;96.70;;;;;;5066193;28;20145;-64
2021/09/18 07:01:46;;;;;;;5.32;3.85;;;14.00;96.60;;;;;;5065985;28;20383;-63
2021/09/18 07:04:11;;;;;;;6.47;4.05;;;14.10;96.40;;;;;;5079038;28;20105;-64
2021/09/18 07:06:37;;;;;;;5.75;3.88;;;14.10;96.30;;;;;;5067800;28;20395;-65
2021/09/18 07:09:03;;;;;;;6.15;3.83;;;14.20;96.00;;;;;;5049666;28;20025;-64
2021/09/18 07:11:28;;;;;;;7.25;4.80;;;14.30;96.00;;;;;;5055294;28;20033;-64
2021/09/18 07:13:54;;;;;;;7.13;5.00;;;14.40;96.00;;;;;;5059132;28;20274;-65
2021/09/18 07:16:19;;;;;;;8.00;4.97;;;14.50;95.90;;;;;;5062806;28;20017;-65
2021/09/18 07:18:46;;;;;;;6.40;4.35;;;14.40;95.50;;;;;;5058784;28;20206;-63
2021/09/18 07:21:12;;;;;;;8.18;5.35;;;14.50;95.80;;;;;;5062050;28;20474;-65
2021/09/18 07:23:37;;;;;;;7.55;5.13;;;14.50;95.40;;;;;;5054979;28;20111;-62
2021/09/18 07:26:03;;;;;;;10.50;6.45;;;14.40;95.40;;;;;;5063598;28;20028;-65
2021/09/18 07:28:29;;;;;;;7.35;5.93;;;14.50;95.50;;;;;;5061571;28;20684;-65
2021/09/18 07:30:55;;;;;;;9.13;6.50;;;14.40;95.40;;;;;;5064394;28;20532;-63
2021/09/18 07:33:20;;;;;;;10.38;6.53;;;14.50;95.50;;;;;;5055633;28;20036;-63
2021/09/18 07:35:46;;;;;;;8.90;5.70;;;14.60;95.60;;;;;;5061457;28;20204;-62
2021/09/18 07:38:13;;;;;;;9.82;6.30;;;14.60;95.60;;;;;;5057472;28;20162;-65
2021/09/18 07:40:39;;;;;;;8.63;6.50;;;14.80;95.40;;;;;;5057019;28;20509;-64
2021/09/18 07:43:05;;;;;;;9.57;6.20;;;14.90;95.20;;;;;;5065104;28;20107;-64
2021/09/18 07:45:30;;;;;;;8.38;5.45;;;15.00;95.00;;;;;;5056050;28;20066;-64
2021/09/18 07:47:56;;;;;;;7.90;5.20;;;15.20;94.80;;;;;;5047980;28;20709;-65
2021/09/18 07:50:22;;;;;;;9.50;6.03;;;15.30;95.20;;;;;;5056554;28;20033;-65
2021/09/18 07:52:49;;;;;;;8.85;4.78;;;15.50;94.70;;;;;;5063524;28;20426;-65
2021/09/18 07:55:15;;;;;;;11.80;5.35;;;15.50;94.40;;;;;;5066499;28;20112;-64
2021/09/18 07:57:40;;;;;;;8.07;5.32;;;15.60;94.40;;;;;;5050154;28;20147;-65
2021/09/18 08:00:07;;;;;;;8.25;5.35;;;15.40;93.10;;;;;;5063231;28;20036;-64
2021/09/18 08:02:33;;;;;;;7.72;4.93;;;15.50;93.80;;;;;;5058804;28;20064;-65
2021/09/18 08:04:59;;;;;;;7.97;5.05;;;15.60;93.30;;;;;;5061771;28;20106;-65
2021/09/18 08:07:25;;;;;;;7.82;5.60;;;15.80;93.80;;;;;;5062778;28;20579;-65
2021/09/18 08:09:53;;;;;;;9.73;6.13;;;16.00;93.40;;;;;;5065195;28;20028;-64
2021/09/18 08:12:18;;;;;;;9.88;5.30;;;16.10;93.50;;;;;;5057673;28;20032;-64
2021/09/18 08:14:44;;;;;;;7.30;5.80;;;16.10;92.50;;;;;;5056460;28;20021;-65
2021/09/18 08:17:10;;;;;;;8.90;5.80;;;16.30;92.40;;;;;;5064409;28;20020;-66
2021/09/18 08:19:35;;;;;;;9.50;6.25;;;16.20;92.20;;;;;;5056314;28;20513;-65
2021/09/18 08:22:01;;;;;;;8.82;5.47;;;16.30;91.60;;;;;;5055360;28;20041;-62
2021/09/18 08:24:27;;;;;;;11.63;6.60;;;16.40;91.60;;;;;;5058773;28;20111;-65
2021/09/18 08:26:52;;;;;;;9.20;6.90;;;16.30;91.10;;;;;;5067328;28;20051;-65
2021/09/18 08:29:18;;;;;;;7.88;5.78;;;16.20;90.80;;;;;;5060067;28;20395;-64
2021/09/18 08:31:43;;;;;;;7.57;5.63;;;16.30;90.80;;;;;;5061247;28;20100;-65
2021/09/18 08:34:09;;;;;;;8.50;5.55;;;16.50;90.80;;;;;;5062604;28;20038;-65
2021/09/18 08:36:35;;;;;;;7.13;5.70;;;16.80;90.70;;;;;;5057723;28;20060;-65
2021/09/18 08:39:01;;;;;;;7.68;5.20;;;17.00;90.40;;;;;;5053801;28;20052;-64
2021/09/18 08:41:26;;;;;;;6.80;5.28;;;16.90;88.10;;;;;;5063478;28;20430;-63
2021/09/18 08:43:52;;;;;;;9.30;5.30;;;17.00;88.60;;;;;;5064909;28;20116;-65
2021/09/18 08:46:18;;;;;;;7.07;4.72;;;17.10;89.50;;;;;;5070298;28;20064;-65
2021/09/18 08:48:45;;;;;;;7.00;4.43;;;17.50;89.80;;;;;;5050539;28;20545;-65
2021/09/18 08:51:11;;;;;;;6.40;4.57;;;17.70;87.40;;;;;;5084348;28;20666;-65
2021/09/18 08:53:37;;;;;;;7.32;4.78;;;18.00;87.20;;;;;;5054201;28;20028;-65
2021/09/18 08:56:03;;;;;;;10.77;4.65;;;18.10;85.40;;;;;;5062891;28;20017;-64
2021/09/18 08:58:29;;;;;;;5.03;3.33;;;18.30;86.50;;;;;;5056754;28;20024;-65
2021/09/18 09:00:57;;;;;;;8.23;4.20;;;18.20;82.20;;;;;;5073374;28;20032;-63
2021/09/18 09:03:32;;;;;;;4.45;3.42;;;18.20;86.40;;;;;;5058436;28;20020;-64
2021/09/18 09:06:00;;;;;;;5.72;3.78;;;18.40;84.90;;;;;;5054624;28;20379;-65
2021/09/18 09:08:26;;;;;;;4.00;2.92;;;18.50;83.00;;;;;;5055301;28;20032;-65
2021/09/18 09:10:53;;;;;;;4.38;2.83;;;18.60;83.70;;;;;;5070416;28;20024;-65
2021/09/18 09:13:22;;;;;;;4.47;2.72;;;18.60;83.50;;;;;;5071457;28;20107;-63
2021/09/18 09:15:51;;;;;;;3.38;2.42;;;18.30;83.70;;;;;;5070171;28;20059;-64
2021/09/18 09:18:27;;;;;;;4.00;1.98;;;18.40;84.50;;;;;;5059365;28;20024;-64
2021/09/18 09:21:20;;;;;;;3.38;2.35;;;18.40;81.40;;;;;;5048736;28;20049;-65
2021/09/18 09:24:10;;;;;;;2.90;1.73;;;18.50;81.00;;;;;;5059845;28;20032;-63
2021/09/18 09:26:38;;;;;;;2.30;1.63;;;18.50;81.90;;;;;;5059406;28;20028;-63
2021/09/18 09:29:04;;;;;;;2.58;1.50;;;18.50;78.50;;;;;;5063575;28;20032;-63
2021/09/18 09:31:36;;;;;;;5.10;1.67;;;18.60;80.10;;;;;;5058340;28;20817;-65
2021/09/18 09:34:16;;;;;;;2.65;1.50;;;18.40;78.80;;;;;;5068946;28;20030;-65
2021/09/18 09:36:45;;;;;;;2.58;1.67;;;18.60;82.50;;;;;;5061578;28;20024;-64
2021/09/18 09:39:17;;;;;;;1.60;1.17;;;18.60;80.90;;;;;;5053631;28;20020;-64
2021/09/18 09:41:49;;;;;;;1.00;0.82;;;18.70;81.70;;;;;;5051153;28;20033;-65
2021/09/18 09:44:27;;;;;;;1.83;0.90;;;18.70;80.40;;;;;;5059947;28;20024;-63
2021/09/18 09:47:08;;;;;;;1.35;0.88;;;18.80;80.80;;;;;;5067935;28;20079;-63
2021/09/18 09:49:43;;;;;;;;;;;18.80;79.40;;;;;;5063304;28;20028;-64
2021/09/18 09:52:30;;;;;;;1.77;0.77;;;18.90;78.70;;;;;;5060909;28;19908;-64
2021/09/18 09:55:00;;;;;;;2.67;0.93;;;18.90;79.30;;;;;;5083397;28;20032;-65
2021/09/18 09:57:26;;;;;;;1.27;0.90;;;18.90;79.40;;;;;;5051225;28;20423;-64
2021/09/18 10:00:08;;;;;;;1.33;0.90;;;18.60;79.40;;;;;;5067617;28;20020;-63
2021/09/18 10:02:36;;;;;;;1.27;0.75;;;18.70;81.40;;;;;;5056918;28;20104;-64
2021/09/18 10:05:06;;;;;;;2.50;1.10;;;18.60;81.10;;;;;;5067931;28;20032;-64
2021/09/18 10:07:32;;;;;;;2.53;1.30;;;18.40;81.20;;;;;;5057983;28;20560;-65
2021/09/18 10:10:00;;;;;;;1.55;0.85;;;18.30;82.60;;;;;;5057853;28;20063;-66
2021/09/18 10:12:27;;;;;;;2.20;1.27;;;18.20;82.30;;;;;;5058667;28;20053;-65
2021/09/18 10:14:55;;;;;;;2.00;1.05;;;18.20;82.00;;;;;;5069210;28;20091;-64
2021/09/18 10:17:22;;;;;;;1.10;1.00;;;18.30;82.70;;;;;;5056342;28;20027;-64
2021/09/18 10:25:12;;;;;;;1.38;1.17;;;18.00;82.90;;;;;;5064323;28;20032;-63
2021/09/18 10:27:40;;;;;;;1.23;1.13;;;18.30;84.60;;;;;;5059557;28;20086;-64
2021/09/18 10:30:46;;;;;;;1.17;0.90;;;18.40;83.10;;;;;;5067915;28;20400;-63
2021/09/18 10:33:35;;;;;;;1.23;0.70;;;18.60;81.70;;;;;;5068599;28;20113;-65
2021/09/18 10:36:19;;;;;;;3.95;1.40;;;18.50;80.30;;;;;;5055973;28;20028;-66
2021/09/18 10:38:46;;;;;;;2.13;1.10;;;18.70;78.50;;;;;;5052369;28;20017;-65
2021/09/18 10:41:19;;;;;;;2.15;0.90;;;18.70;79.30;;;;;;5049255;28;20159;-66
2021/09/18 10:44:00;;;;;;;1.77;0.70;;;18.90;80.10;;;;;;5059404;28;20021;-64
2021/09/18 10:46:40;;;;;;;;;;;18.60;79.20;;;;;;5059531;28;20033;-64
2021/09/18 10:49:26;;;;;;;1.40;0.80;;;18.50;82.20;;;;;;5054475;28;19908;-65
2021/09/18 10:51:54;;;;;;;2.20;1.00;;;18.10;82.60;;;;;;5052376;28;20037;-65
2021/09/18 10:54:20;;;;;;;1.13;0.85;;;18.00;82.40;;;;;;5066580;28;20025;-65
2021/09/18 10:57:03;;;;;;;1.15;0.70;;;17.80;83.60;;;;;;5058667;28;20365;-65
2021/09/18 10:59:39;;;;;;;0.95;0.82;;;17.70;84.70;;;;;;5060156;28;20067;-64
2021/09/18 11:02:30;;;;;;;4.00;0.90;;;17.60;85.30;;;;;;5055992;28;20052;-65
2021/09/18 11:04:57;;;;;;;3.50;0.80;;;17.50;86.30;;;;;;5056473;28;20029;-64
2021/09/18 11:07:40;;;;;;;1.48;0.90;;;17.30;85.90;;;;;;5054091;28;20029;-65
2021/09/18 11:10:12;;;;;;;1.75;0.90;;;17.20;87.10;;;;;;5057807;28;20032;-64
2021/09/18 11:12:38;;;;;;;1.08;0.65;;;17.20;87.70;;;;;;5068615;28;20054;-64
2021/09/18 11:15:10;;;;;;;2.90;1.00;;;17.20;86.80;;;;;;5060751;28;20514;-64
2021/09/18 11:17:44;;;;;;;3.65;0.80;;;17.50;87.50;;;;;;5059993;28;20025;-67
2021/09/18 11:20:21;;;;;;;0.73;0.60;;;17.80;86.20;;;;;;5050883;28;20120;-65
2021/09/18 11:22:53;;;;;;;1.67;0.80;;;18.00;86.10;;;;;;5051657;28;20096;-63
2021/09/18 11:25:30;;;;;;;2.70;0.70;;;18.30;84.80;;;;;;5057956;28;20521;-65
2021/09/18 11:28:06;;;;;;;1.75;0.52;;;18.50;82.90;;;;;;5049876;28;20107;-65
2021/09/18 11:30:39;;;;;;;0.60;0.60;;;18.60;81.70;;;;;;5066355;28;20107;-65
2021/09/18 11:33:06;;;;;;;1.98;0.68;;;18.70;82.50;;;;;;5055402;28;20105;-65
2021/09/18 11:35:31;;;;;;;1.85;0.70;;;19.00;81.10;;;;;;5061339;28;20443;-64
2021/09/18 11:38:05;;;;;;;1.65;0.85;;;19.50;81.60;;;;;;5047913;28;20390;-63
2021/09/18 11:40:32;;;;;;;1.63;0.60;;;19.60;79.60;;;;;;5060502;28;20035;-65
2021/09/18 11:42:58;;;;;;;1.05;0.50;;;19.50;79.10;;;;;;5057107;28;20056;-64
2021/09/18 11:45:26;;;;;;;1.55;0.50;;;19.70;79.00;;;;;;5053938;28;20214;-65
2021/09/18 11:47:56;;;;;;;0.68;0.50;;;19.70;79.10;;;;;;5054528;28;20516;-66
2021/09/18 11:50:33;;;;;;;2.73;1.07;;;19.80;79.30;;;;;;5052864;28;20111;-65
2021/09/18 11:53:03;;;;;;;2.63;0.73;;;19.60;77.60;;;;;;5061659;28;20314;-65
2021/09/18 11:55:41;;;;;;;1.70;0.47;;;19.70;77.90;;;;;;5051871;28;20124;-64
2021/09/18 11:58:08;;;;;;;1.33;0.60;;;19.80;78.20;;;;;;5073004;28;20115;-63
2021/09/18 12:00:36;;;;;;;0.40;0.35;;;20.20;77.20;;;;;;5061356;28;20098;-65
2021/09/18 12:03:02;;;;;;;0.65;0.30;;;20.10;75.50;;;;;;5050822;28;20032;-66
2021/09/18 12:05:28;;;;;;;1.05;0.55;;;20.00;74.50;;;;;;5054996;28;20403;-65
2021/09/18 12:07:54;;;;;;;0.95;0.40;;;20.20;76.50;;;;;;5048610;28;20025;-65
2021/09/18 12:10:21;;;;;;;0.43;0.40;;;20.10;76.20;;;;;;5062085;28;20074;-63
2021/09/18 12:12:54;;;;;;;0.85;0.40;;;20.20;77.50;;;;;;5054246;28;20032;-65
2021/09/18 12:15:31;;;;;;;2.65;0.70;;;20.00;75.70;;;;;;5052308;28;20364;-65
2021/09/18 12:17:57;;;;;;;0.40;0.30;;;20.00;77.50;;;;;;5051794;28;20036;-65
2021/09/18 12:20:23;;;;;;;0.50;0.50;;;19.80;76.10;;;;;;5050631;28;20164;-64
2021/09/18 12:22:49;;;;;;;0.70;0.47;;;19.60;77.70;;;;;;5067065;28;20115;-65
2021/09/18 12:25:14;;;;;;;1.10;0.50;;;19.40;78.10;;;;;;5060639;28;20127;-65
2021/09/18 12:27:40;;;;;;;2.65;0.52;;;19.20;79.20;;;;;;5059078;28;20063;-65
2021/09/18 12:30:09;;;;;;;1.67;0.55;;;19.00;79.60;;;;;;5057098;28;20056;-65
2021/09/18 12:32:36;;;;;;;1.25;0.40;;;18.80;80.60;;;;;;5056385;28;20056;-64
2021/09/18 12:35:08;;;;;;;4.05;0.68;;;18.40;82.80;;;;;;5060034;28;20025;-63
2021/09/18 12:37:38;;;;;;;0.50;0.40;;;18.00;83.30;;;;;;5058655;28;20024;-64
2021/09/18 12:40:16;;;;;;;1.00;0.77;;;17.50;86.20;;;;;;5057953;28;20037;-63
2021/09/18 12:42:42;;;;;;;2.80;0.95;;;17.30;88.00;;;;;;5056645;28;20379;-64
2021/09/18 12:45:23;;;;;;;4.25;1.00;;;17.10;88.50;;;;;;5054791;28;20024;-63
2021/09/18 12:47:48;;;;;;;1.65;0.80;;;16.90;89.60;;;;;;5044513;28;20055;-64
2021/09/18 12:50:19;;;;;;;1.00;0.80;;;16.70;90.20;;;;;;5046912;28;20438;-64
2021/09/18 12:52:44;;;;;;;5.30;0.97;;;16.70;90.70;;;;;;5044953;28;20058;-63